Time,TemperatureF,DewpointF,PressureIn,WindDirection,WindDirectionDegrees,WindSpeedMPH,WindSpeedGustMPH,Humidity,HourlyPrecipIn,Conditions,Clouds,dailyrainin,SoftwareType,DateUTC
2015-05-04 00:01:00,49.0,45.3,30.00,ENE,75,0.0,0.0,87,0.00,CLR,FEW,0.00,WeatherDisplay:10.37,2015-05-04 04:01:00,
2015-05-04 00:06:00,48.8,45.4,30.00,ENE,75,0.0,0.0,88,0.00,CLR,FEW,0.00,WeatherDisplay:10.37,2015-05-04 04:06:00,
2015-05-04 00:12:00,48.6,45.2,30.00,ENE,75,0.0,0.0,88,0.00,CLR,FEW,0.00,WeatherDisplay:10.37,2015-05-04 04:12:00,
2015-05-04 00:17:00,48.4,45.0,30.00,ENE,75,0.0,0.0,88,0.00,CLR,FEW,0.00,WeatherDisplay:10.37,2015-05-04 04:17:00,
2015-05-04 00:22:00,48.2,44.8,30.00,ENE,75,0.0,0.0,88,0.00,CLR,FEW,0.00,WeatherDisplay:10.37,2015-05-04 04:22:00,
2015-05-04 00:27:00,48.1,45.0,30.00,ENE,75,0.0,0.0,89,0.00,CLR,FEW,0.00,WeatherDisplay:10.37,2015-05-04 04:27:00,
2015-05-04 00:32:00,47.9,44.8,30.00,ENE,75,0.0,0.0,89,0.00,CLR,FEW,0.00,WeatherDisplay:10.37,2015-05-04 04:32:00,
2015-05-04 00:37:00,47.8,45.0,30.00,ENE,75,0.0,0.0,90,0.00,CLR,FEW,0.00,WeatherDisplay:10.37,2015-05-04 04:37:00,
2015-05-04 00:42:00,47.6,44.8,30.00,ENE,75,0.0,0.0,90,0.00,CLR,FEW,0.00,WeatherDisplay:10.37,2015-05-04 04:42:00,
2015-05-04 00:47:00,47.5,44.7,30.00,ENE,75,0.0,0.0,90,0.00,CLR,FEW,0.00,WeatherDisplay:10.37,2015-05-04 04:47:00,
2015-05-04 00:52:00,47.4,44.6,30.00,ENE,75,0.0,0.0,90,0.00,CLR,FEW,0.00,WeatherDisplay:10.37,2015-05-04 04:52:00,
2015-05-04 00:57:00,47.3,44.8,30.00,ENE,75,0.0,0.0,91,0.00,CLR,FEW,0.00,WeatherDisplay:10.37,2015-05-04 04:57:00,
2015-05-04 01:02:00,47.1,44.6,30.00,ENE,75,0.0,0.0,91,0.00,CLR,FEW,0.00,WeatherDisplay:10.37,2015-05-04 05:02:00,
2015-05-04 01:07:00,47.0,44.5,30.00,ENE,75,0.0,0.0,91,0.00,CLR,FEW,0.00,WeatherDisplay:10.37,2015-05-04 05:07:00,
2015-05-04 01:12:00,46.9,44.4,30.00,ENE,75,0.0,0.0,91,0.00,CLR,FEW,0.00,WeatherDisplay:10.37,2015-05-04 05:12:00,
2015-05-04 01:17:00,46.7,44.2,30.01,ENE,75,0.0,0.0,91,0.00,CLR,FEW,0.00,WeatherDisplay:10.37,2015-05-04 05:17:00,
2015-05-04 01:22:00,46.6,44.1,30.01,ENE,75,0.0,0.0,91,0.00,CLR,FEW,0.00,WeatherDisplay:10.37,2015-05-04 05:22:00,
2015-05-04 01:27:00,46.4,43.9,30.01,ENE,75,0.0,0.0,91,0.00,CLR,FEW,0.00,WeatherDisplay:10.37,2015-05-04 05:27:00,
2015-05-04 01:32:00,46.3,43.8,30.01,ENE,75,0.0,0.0,91,0.00,CLR,FEW,0.00,WeatherDisplay:10.37,2015-05-04 05:32:00,
2015-05-04 01:37:00,46.3,43.8,30.01,ENE,75,0.0,0.0,91,0.00,CLR,FEW,0.00,WeatherDisplay:10.37,2015-05-04 05:37:00,
2015-05-04 01:42:00,46.1,43.6,30.01,ENE,75,0.0,0.0,91,0.00,CLR,FEW,0.00,WeatherDisplay:10.37,2015-05-04 05:42:00,
2015-05-04 01:47:00,46.0,43.8,30.01,ENE,75,0.0,0.0,92,0.00,CLR,FEW,0.00,WeatherDisplay:10.37,2015-05-04 05:47:00,
2015-05-04 01:52:00,45.9,43.7,30.01,ENE,75,0.0,0.0,92,0.00,CLR,FEW,0.00,WeatherDisplay:10.37,2015-05-04 05:52:00,
2015-05-04 01:57:00,45.9,43.7,30.01,ENE,75,0.0,0.0,92,0.00,CLR,FEW,0.00,WeatherDisplay:10.37,2015-05-04 05:57:00,
2015-05-04 02:02:00,45.8,43.6,30.01,ENE,75,0.0,0.0,92,0.00,CLR,FEW,0.00,WeatherDisplay:10.37,2015-05-04 06:02:00,
2015-05-04 02:07:00,45.6,43.4,30.01,ENE,75,0.0,0.0,92,0.00,CLR,FEW,0.00,WeatherDisplay:10.37,2015-05-04 06:07:00,
2015-05-04 02:12:00,45.5,43.3,30.01,ENE,75,0.0,0.0,92,0.00,CLR,FEW,0.00,WeatherDisplay:10.37,2015-05-04 06:12:00,
2015-05-04 02:17:00,45.4,43.2,30.02,ENE,75,0.0,0.0,92,0.00,CLR,FEW,0.00,WeatherDisplay:10.37,2015-05-04 06:17:00,
2015-05-04 02:22:00,45.3,43.1,30.02,ENE,75,0.0,0.0,92,0.00,CLR,FEW,0.00,WeatherDisplay:10.37,2015-05-04 06:22:00,
2015-05-04 02:27:00,45.1,42.9,30.02,ENE,75,0.0,0.0,92,0.00,CLR,FEW,0.00,WeatherDisplay:10.37,2015-05-04 06:27:00,
2015-05-04 02:32:00,45.0,43.1,30.02,ENE,75,0.0,0.0,93,0.00,CLR,FEW,0.00,WeatherDisplay:10.37,2015-05-04 06:32:00,
2015-05-04 02:37:00,45.0,43.1,30.02,ENE,75,0.0,0.0,93,0.00,CLR,FEW,0.00,WeatherDisplay:10.37,2015-05-04 06:37:00,
2015-05-04 02:42:00,45.0,43.1,30.02,ENE,75,0.0,0.0,93,0.00,CLR,FEW,0.00,WeatherDisplay:10.37,2015-05-04 06:42:00,
2015-05-04 02:47:00,45.0,43.1,30.02,ENE,75,0.0,0.0,93,0.00,CLR,FEW,0.00,WeatherDisplay:10.37,2015-05-04 06:47:00,
2015-05-04 02:52:00,44.9,43.0,30.02,ENE,75,0.0,0.0,93,0.00,CLR,FEW,0.00,WeatherDisplay:10.37,2015-05-04 06:52:00,
2015-05-04 02:57:00,44.9,43.0,30.02,ENE,75,0.0,0.0,93,0.00,CLR,FEW,0.00,WeatherDisplay:10.37,2015-05-04 06:57:00,
2015-05-04 03:02:00,44.6,42.7,30.01,ENE,75,0.0,0.0,93,0.00,CLR,FEW,0.00,WeatherDisplay:10.37,2015-05-04 07:02:00,
2015-05-04 03:07:00,44.5,42.6,30.01,ENE,75,0.0,0.0,93,0.00,CLR,FEW,0.00,WeatherDisplay:10.37,2015-05-04 07:07:00,
2015-05-04 03:12:00,44.4,42.5,30.01,ENE,75,0.0,0.0,93,0.00,CLR,FEW,0.00,WeatherDisplay:10.37,2015-05-04 07:12:00,
2015-05-04 03:17:00,44.3,42.4,30.02,ENE,75,0.0,0.0,93,0.00,CLR,FEW,0.00,WeatherDisplay:10.37,2015-05-04 07:17:00,
2015-05-04 03:22:00,44.3,42.4,30.02,ENE,75,0.0,0.0,93,0.00,CLR,FEW,0.00,WeatherDisplay:10.37,2015-05-04 07:22:00,
2015-05-04 03:27:00,44.1,42.5,30.02,ENE,75,0.0,0.0,94,0.00,CLR,FEW,0.00,WeatherDisplay:10.37,2015-05-04 07:27:00,
2015-05-04 03:32:00,44.0,42.4,30.02,ENE,75,0.0,0.0,94,0.00,CLR,FEW,0.00,WeatherDisplay:10.37,2015-05-04 07:32:00,
2015-05-04 03:37:00,44.0,42.4,30.02,ENE,75,0.0,0.0,94,0.00,CLR,FEW,0.00,WeatherDisplay:10.37,2015-05-04 07:37:00,
2015-05-04 03:42:00,43.8,42.2,30.02,ENE,75,0.0,0.0,94,0.00,CLR,FEW,0.00,WeatherDisplay:10.37,2015-05-04 07:42:00,
2015-05-04 03:47:00,43.8,42.2,30.02,ENE,75,0.0,0.0,94,0.00,CLR,FEW,0.00,WeatherDisplay:10.37,2015-05-04 07:47:00,
2015-05-04 03:52:00,43.7,42.1,30.02,ENE,75,0.0,0.0,94,0.00,CLR,FEW,0.00,WeatherDisplay:10.37,2015-05-04 07:52:00,
2015-05-04 03:57:00,43.6,42.0,30.02,ENE,75,0.0,0.0,94,0.00,CLR,FEW,0.00,WeatherDisplay:10.37,2015-05-04 07:57:00,
2015-05-04 04:02:00,43.6,42.0,30.02,ENE,75,0.0,0.0,94,0.00,CLR,FEW,0.00,WeatherDisplay:10.37,2015-05-04 08:02:00,
2015-05-04 04:07:00,43.6,42.0,30.02,ENE,75,0.0,0.0,94,0.00,CLR,FEW,0.00,WeatherDisplay:10.37,2015-05-04 08:07:00,
2015-05-04 04:12:00,43.5,41.9,30.02,ENE,75,0.0,0.0,94,0.00,CLR,FEW,0.00,WeatherDisplay:10.37,2015-05-04 08:12:00,
2015-05-04 04:17:00,43.4,41.8,30.02,ENE,75,0.0,0.0,94,0.00,CLR,FEW,0.00,WeatherDisplay:10.37,2015-05-04 08:17:00,
2015-05-04 04:22:00,43.3,41.7,30.02,ENE,75,0.0,0.0,94,0.00,CLR,FEW,0.00,WeatherDisplay:10.37,2015-05-04 08:22:00,
2015-05-04 04:27:00,43.2,41.6,30.02,ENE,75,0.0,0.0,94,0.00,CLR,FEW,0.00,WeatherDisplay:10.37,2015-05-04 08:27:00,
2015-05-04 04:32:00,43.2,41.6,30.02,ENE,75,0.0,0.0,94,0.00,CLR,FEW,0.00,WeatherDisplay:10.37,2015-05-04 08:32:00,
2015-05-04 04:37:00,43.1,41.8,30.02,ENE,75,0.0,0.0,95,0.00,CLR,FEW,0.00,WeatherDisplay:10.37,2015-05-04 08:37:00,
2015-05-04 04:42:00,43.1,41.8,30.02,ENE,75,0.0,0.0,95,0.00,CLR,FEW,0.00,WeatherDisplay:10.37,2015-05-04 08:42:00,
2015-05-04 04:47:00,42.9,41.3,30.02,ENE,75,0.0,0.0,94,0.00,CLR,FEW,0.00,WeatherDisplay:10.37,2015-05-04 08:47:00,
2015-05-04 04:52:00,42.9,41.3,30.02,ENE,75,0.0,0.0,94,0.00,CLR,FEW,0.00,WeatherDisplay:10.37,2015-05-04 08:52:00,
2015-05-04 04:57:00,42.8,41.2,30.02,ENE,75,0.0,0.0,94,0.00,CLR,FEW,0.00,WeatherDisplay:10.37,2015-05-04 08:57:00,
2015-05-04 05:02:00,42.8,41.5,30.02,ENE,75,0.0,0.0,95,0.00,CLR,FEW,0.00,WeatherDisplay:10.37,2015-05-04 09:02:00,
2015-05-04 05:07:00,42.7,41.4,30.02,ENE,75,0.0,0.0,95,0.00,CLR,FEW,0.00,WeatherDisplay:10.37,2015-05-04 09:07:00,
2015-05-04 05:12:00,42.7,41.4,30.02,ENE,75,0.0,0.0,95,0.00,CLR,FEW,0.00,WeatherDisplay:10.37,2015-05-04 09:12:00,
2015-05-04 05:17:00,42.6,41.3,30.02,ENE,75,0.0,0.0,95,0.00,CLR,FEW,0.00,WeatherDisplay:10.37,2015-05-04 09:17:00,
2015-05-04 05:22:00,42.6,41.3,30.02,ENE,75,0.0,0.0,95,0.00,CLR,FEW,0.00,WeatherDisplay:10.37,2015-05-04 09:22:00,
2015-05-04 05:27:00,42.5,41.2,30.02,ENE,75,0.0,0.0,95,0.00,CLR,FEW,0.00,WeatherDisplay:10.37,2015-05-04 09:27:00,
2015-05-04 05:32:00,42.5,41.2,30.02,ENE,75,0.0,0.0,95,0.00,CLR,FEW,0.00,WeatherDisplay:10.37,2015-05-04 09:32:00,
2015-05-04 05:37:00,42.5,41.2,30.02,ENE,75,0.0,0.0,95,0.00,CLR,FEW,0.00,WeatherDisplay:10.37,2015-05-04 09:37:00,
2015-05-04 05:42:00,42.5,41.2,30.02,ENE,75,0.0,0.0,95,0.00,CLR,FEW,0.00,WeatherDisplay:10.37,2015-05-04 09:42:00,
2015-05-04 05:47:00,42.5,41.2,30.03,ENE,75,0.0,0.0,95,0.00,CLR,FEW,0.00,WeatherDisplay:10.37,2015-05-04 09:47:00,
2015-05-04 05:52:00,42.5,41.2,30.03,ENE,75,0.0,0.0,95,0.00,CLR,FEW,0.00,WeatherDisplay:10.37,2015-05-04 09:52:00,
2015-05-04 05:57:00,42.5,41.2,30.03,ENE,75,0.0,0.0,95,0.00,CLR,FEW,0.00,WeatherDisplay:10.37,2015-05-04 09:57:00,
2015-05-04 06:02:00,42.6,41.3,30.03,ENE,75,0.0,0.0,95,0.00,CLR,FEW,0.00,WeatherDisplay:10.37,2015-05-04 10:02:00,
2015-05-04 06:07:00,42.7,41.4,30.03,ENE,75,0.0,0.0,95,0.00,CLR,FEW,0.00,WeatherDisplay:10.37,2015-05-04 10:07:00,
2015-05-04 06:12:00,42.9,41.6,30.03,ENE,75,0.0,0.0,95,0.00,CLR,FEW,0.00,WeatherDisplay:10.37,2015-05-04 10:12:00,
2015-05-04 06:17:00,43.2,42.1,30.03,ENE,75,0.0,0.0,96,0.00,CLR,FEW,0.00,WeatherDisplay:10.37,2015-05-04 10:17:00,
2015-05-04 06:22:00,43.4,42.3,30.03,ENE,75,0.0,0.0,96,0.00,CLR,FEW,0.00,WeatherDisplay:10.37,2015-05-04 10:22:00,
2015-05-04 06:27:00,43.8,42.7,30.03,ENE,75,0.0,0.0,96,0.00,CLR,FEW,0.00,WeatherDisplay:10.37,2015-05-04 10:27:00,
2015-05-04 06:32:00,44.2,43.1,30.04,ENE,75,0.0,0.0,96,0.00,CLR,FEW,0.00,WeatherDisplay:10.37,2015-05-04 10:32:00,
2015-05-04 06:37:00,44.6,43.5,30.04,ENE,75,0.0,0.0,96,0.00,CLR,FEW,0.00,WeatherDisplay:10.37,2015-05-04 10:37:00,